Thunder radar more information blitzortung!


Radar de pluja more information rain snow radar


Visita la nostra xarxa de llocs de meteo:

Template documentation
and downloads

And another site



No particular awareness of the weather is required.    There are no Weather-warnings

Pagina Historial Weather Underground text

Diari Resum Abril 13, 2016 Unitats:  Mètric    Imperial   Tant
« Previous Dia
SegĂźent Dia »
Diari Setmana Mensual Anual Personalitzada
  Maxima: Minima: Media:
Temperatura: 21.7 °C 9.3 °C 17 °C
Punt de rosada: 9.5 °C 0.4 °C 3.9 °C
Humitat: 68 % 30 % 43 %
Wind Speed: 22.2 km/h 0.0 km/h 7.9 km/h
RĂ fegues de vent: 22.2 km/h - -
Vent:- - SW
Pression baro: 1015.8 hPa 1010.0 hPa -
Precipitacions: 0.0 mm    
Historical Graphs
 
 
Dades de taula per Abril 13, 2016
Temps Temperatura Punt de rosada Pression baro Vent Wind Speed RĂ fegues de vent Humitat Rainfall Rate (Hourly)
00:01 13.3 °C 5.4 °C 1011.7 hPa SW 3.9 km/h 3.9 km/h 59 % 0.0 mm
00:05 11.4 °C 4.6 °C 1010.7 hPa South 1.6 km/h 3.2 km/h 63 % 0.0 mm
00:15 11.5 °C 4.7 °C 1010.7 hPa Calm   1.6 km/h 63 % 0.0 mm
00:35 11.5 °C 4.7 °C 1010.0 hPa Calm   1.6 km/h 63 % 0.0 mm
00:45 11.5 °C 4.7 °C 1010.0 hPa WSW 1.6 km/h 3.2 km/h 63 % 0.0 mm
00:55 11.5 °C 4.7 °C 1010.0 hPa WSW 1.6 km/h 4.8 km/h 63 % 0.0 mm
01:05 11.5 °C 4.7 °C 1010.7 hPa WSW 1.6 km/h 3.2 km/h 63 % 0.0 mm
01:15 11.5 °C 4.7 °C 1010.7 hPa Calm   1.6 km/h 63 % 0.0 mm
01:25 11.0 °C 4.9 °C 1010.0 hPa Calm   3.2 km/h 66 % 0.0 mm
01:45 10.7 °C 4.6 °C 1010.7 hPa SW 1.6 km/h 3.2 km/h 66 % 0.0 mm
01:55 10.6 °C 4.5 °C 1010.0 hPa WSW 1.6 km/h 3.2 km/h 66 % 0.0 mm
02:05 10.5 °C 4.6 °C 1010.0 hPa WSW 1.6 km/h 4.8 km/h 67 % 0.0 mm
02:15 10.6 °C 4.5 °C 1010.0 hPa WSW 3.2 km/h 3.2 km/h 66 % 0.0 mm
02:25 10.6 °C 4.7 °C 1010.0 hPa Calm   3.2 km/h 67 % 0.0 mm
02:35 10.6 °C 4.7 °C 1010.0 hPa Calm   1.6 km/h 67 % 0.0 mm
02:45 10.6 °C 4.7 °C 1010.0 hPa NW 1.6 km/h 3.2 km/h 67 % 0.0 mm
02:55 10.6 °C 4.9 °C 1011.7 hPa Calm     68 % 0.0 mm
03:05 10.7 °C 4.8 °C 1011.7 hPa West 1.6 km/h 3.2 km/h 67 % 0.0 mm
03:15 11.0 °C 5.1 °C 1011.7 hPa WSW 1.6 km/h 3.2 km/h 67 % 0.0 mm
03:35 11.1 °C 5.2 °C 1011.7 hPa SW 1.6 km/h 3.2 km/h 67 % 0.0 mm
04:05 11.8 °C 6.1 °C 1011.7 hPa Calm   1.6 km/h 68 % 0.0 mm
04:15 12.2 °C 6.4 °C 1011.7 hPa SW 1.6 km/h 3.2 km/h 68 % 0.0 mm
04:25 12.5 °C 6.8 °C 1011.7 hPa South 1.6 km/h 3.2 km/h 68 % 0.0 mm
04:35 13.5 °C 7.5 °C 1011.7 hPa South 1.6 km/h 4.8 km/h 67 % 0.0 mm
04:45 15.0 °C 8.7 °C 1011.7 hPa SE 3.2 km/h 3.2 km/h 66 % 0.0 mm
04:55 15.6 °C 9.1 °C 1011.7 hPa SW 3.2 km/h 6.4 km/h 65 % 0.0 mm
05:05 16.3 °C 9.5 °C 1011.7 hPa WSW 4.8 km/h 6.4 km/h 64 % 0.0 mm
05:15 16.8 °C 9.0 °C 1011.7 hPa SW 4.8 km/h 9.7 km/h 60 % 0.0 mm
05:25 16.9 °C 8.1 °C 1011.7 hPa WSW 4.8 km/h 12.9 km/h 56 % 0.0 mm
05:35 17.3 °C 7.9 °C 1011.7 hPa WSW 8.0 km/h 9.7 km/h 54 % 0.0 mm
10:37 17.3 °C 7.9 °C 1011.7 hPa WNW 7.4 km/h 7.9 km/h 54 % 0.0 mm
10:42 17.4 °C 7.4 °C 1011.7 hPa North 7.9 km/h 7.9 km/h 52 % 0.0 mm
10:47 17.4 °C 7.4 °C 1011.7 hPa West 21.2 km/h 21.2 km/h 52 % 0.0 mm
11:02 18.6 °C 8.3 °C 1011.7 hPa West 7.4 km/h 7.4 km/h 51 % 0.0 mm
11:07 18.6 °C 8.3 °C 1011.7 hPa West 6.9 km/h 6.9 km/h 51 % 0.0 mm
11:12 18.6 °C 8.3 °C 1011.7 hPa WSW 7.4 km/h 7.4 km/h 51 % 0.0 mm
11:17 18.6 °C 8.3 °C 1011.7 hPa West 7.4 km/h 8.7 km/h 51 % 0.0 mm
11:22 18.6 °C 8.3 °C 1011.7 hPa SSW 9.5 km/h 9.5 km/h 51 % 0.0 mm
11:27 18.5 °C 7.3 °C 1011.7 hPa WSW 9.3 km/h 9.3 km/h 48 % 0.0 mm
11:32 18.5 °C 7.3 °C 1011.7 hPa SW 13.0 km/h 13.0 km/h 48 % 0.0 mm
11:37 18.7 °C 7.2 °C 1011.7 hPa West 9.3 km/h 9.3 km/h 47 % 0.0 mm
11:42 18.7 °C 7.2 °C 1011.7 hPa SW 10.0 km/h 10.0 km/h 47 % 0.0 mm
11:47 18.7 °C 7.2 °C 1011.7 hPa SW 5.3 km/h 5.3 km/h 47 % 0.0 mm
11:52 19.0 °C 7.1 °C 1011.7 hPa NNW 9.3 km/h 9.3 km/h 46 % 0.0 mm
11:57 19.1 °C 7.2 °C 1011.7 hPa WSW 9.3 km/h 9.3 km/h 46 % 0.0 mm
12:02 19.5 °C 7.6 °C 1011.7 hPa SW 9.5 km/h 9.5 km/h 46 % 0.0 mm
12:07 19.6 °C 7.7 °C 1011.7 hPa WSW 11.9 km/h 11.9 km/h 46 % 0.0 mm
12:12 19.6 °C 7.3 °C 1011.7 hPa West 9.3 km/h 9.3 km/h 45 % 0.0 mm
12:17 19.6 °C 7.3 °C 1011.7 hPa WSW 13.0 km/h 13.0 km/h 45 % 0.0 mm
12:22 19.7 °C 7.1 °C 1011.7 hPa NW 7.4 km/h 7.4 km/h 44 % 0.0 mm
12:27 19.7 °C 7.1 °C 1011.7 hPa SSW 7.9 km/h 7.9 km/h 44 % 0.0 mm
12:32 19.6 °C 6.7 °C 1011.7 hPa WSW 11.1 km/h 11.1 km/h 43 % 0.0 mm
12:42 19.7 °C 6.8 °C 1011.7 hPa West 11.1 km/h 11.1 km/h 43 % 0.0 mm
12:47 19.9 °C 6.6 °C 1011.7 hPa NNW 22.2 km/h 22.2 km/h 42 % 0.0 mm
12:52 19.9 °C 6.6 °C 1011.7 hPa WSW 9.3 km/h 9.3 km/h 42 % 0.0 mm
12:57 19.9 °C 6.6 °C 1011.7 hPa WSW 11.1 km/h 11.1 km/h 42 % 0.0 mm
13:02 19.9 °C 6.6 °C 1011.7 hPa West 11.1 km/h 11.1 km/h 42 % 0.0 mm
13:07 20.1 °C 6.4 °C 1011.7 hPa WSW 13.0 km/h 13.0 km/h 41 % 0.0 mm
13:12 20.2 °C 6.2 °C 1011.7 hPa West 14.8 km/h 14.8 km/h 40 % 0.0 mm
13:17 20.0 °C 6.0 °C 1011.7 hPa WSW 9.3 km/h 9.3 km/h 40 % 0.0 mm
13:22 20.3 °C 6.2 °C 1011.7 hPa WSW 14.0 km/h 14.0 km/h 40 % 0.0 mm
13:27 20.8 °C 6.7 °C 1011.7 hPa WSW 12.2 km/h 12.2 km/h 40 % 0.0 mm
13:32 21.0 °C 6.9 °C 1011.7 hPa WSW 9.3 km/h 9.3 km/h 40 % 0.0 mm
13:37 20.8 °C 6.3 °C 1011.7 hPa NNW 9.3 km/h 9.3 km/h 39 % 0.0 mm
13:42 20.9 °C 6.4 °C 1011.7 hPa WSW 21.2 km/h 21.2 km/h 39 % 0.0 mm
13:47 20.3 °C 5.5 °C 1010.7 hPa SW 14.8 km/h 14.8 km/h 38 % 0.0 mm
13:52 21.0 °C 6.5 °C 1010.7 hPa West 9.3 km/h 9.3 km/h 39 % 0.0 mm
13:57 20.8 °C 6.3 °C 1010.7 hPa West 13.0 km/h 13.0 km/h 39 % 0.0 mm
14:02 21.0 °C 6.1 °C 1011.7 hPa WSW 9.3 km/h 9.3 km/h 38 % 0.0 mm
14:07 21.1 °C 6.2 °C 1011.7 hPa NW 9.3 km/h 9.3 km/h 38 % 0.0 mm
14:17 20.8 °C 5.6 °C 1011.7 hPa WSW 13.0 km/h 13.0 km/h 37 % 0.0 mm
14:22 21.0 °C 5.7 °C 1011.7 hPa West 22.2 km/h 22.2 km/h 37 % 0.0 mm
14:27 20.9 °C 5.7 °C 1011.7 hPa WNW 13.0 km/h 13.0 km/h 37 % 0.0 mm
14:32 21.1 °C 5.8 °C 1011.7 hPa WSW 8.7 km/h 8.7 km/h 37 % 0.0 mm
14:37 20.7 °C 5.5 °C 1011.7 hPa East 11.1 km/h 11.1 km/h 37 % 0.0 mm
14:42 20.4 °C 4.8 °C 1011.7 hPa WSW 14.0 km/h 14.0 km/h 36 % 0.0 mm
14:47 20.5 °C 4.9 °C 1011.7 hPa WNW 16.7 km/h 16.7 km/h 36 % 0.0 mm
14:52 20.6 °C 5.0 °C 1011.7 hPa WNW 14.8 km/h 14.8 km/h 36 % 0.0 mm
14:57 21.5 °C 6.2 °C 1011.7 hPa West 15.8 km/h 15.8 km/h 37 % 0.0 mm
15:02 21.4 °C 4.9 °C 1011.7 hPa SW 16.7 km/h 16.7 km/h 34 % 0.0 mm
15:07 21.2 °C 5.1 °C 1011.7 hPa SW 13.0 km/h 13.0 km/h 35 % 0.0 mm
15:12 20.7 °C 4.3 °C 1011.7 hPa SSW 13.0 km/h 13.0 km/h 34 % 0.0 mm
15:22 20.3 °C 4.3 °C 1011.7 hPa West 20.4 km/h 20.4 km/h 35 % 0.0 mm
15:27 20.2 °C 4.2 °C 1011.7 hPa West 9.3 km/h 9.3 km/h 35 % 0.0 mm
15:32 20.8 °C 5.2 °C 1011.7 hPa WSW 11.1 km/h 11.1 km/h 36 % 0.0 mm
15:37 20.6 °C 4.6 °C 1011.7 hPa WNW 16.7 km/h 16.7 km/h 35 % 0.0 mm
15:42 20.7 °C 4.7 °C 1011.7 hPa West 16.7 km/h 16.7 km/h 35 % 0.0 mm
15:47 21.2 °C 5.5 °C 1011.7 hPa West 7.4 km/h 7.4 km/h 36 % 0.0 mm
15:52 21.4 °C 4.9 °C 1011.7 hPa West 13.7 km/h 13.7 km/h 34 % 0.0 mm
16:02 21.1 °C 4.6 °C 1011.7 hPa WSW 13.0 km/h 13.0 km/h 34 % 0.0 mm
16:07 20.8 °C 4.3 °C 1011.7 hPa WSW 16.1 km/h 16.1 km/h 34 % 0.0 mm
16:12 20.7 °C 4.3 °C 1011.7 hPa WSW 14.8 km/h 14.8 km/h 34 % 0.0 mm
16:17 20.7 °C 4.3 °C 1011.7 hPa SW 16.1 km/h 16.1 km/h 34 % 0.0 mm
16:22 20.7 °C 4.3 °C 1011.7 hPa NW 11.1 km/h 11.1 km/h 34 % 0.0 mm
16:27 21.1 °C 4.6 °C 1011.7 hPa WSW 14.8 km/h 14.8 km/h 34 % 0.0 mm
16:32 21.0 °C 4.6 °C 1011.7 hPa WSW 9.3 km/h 9.3 km/h 34 % 0.0 mm
16:42 21.7 °C 4.7 °C 1011.7 hPa West 11.1 km/h 11.1 km/h 33 % 0.0 mm
16:47 21.3 °C 3.9 °C 1011.7 hPa SSW 20.4 km/h 20.4 km/h 32 % 0.0 mm
16:52 21.2 °C 3.8 °C 1011.7 hPa SW 20.4 km/h 20.4 km/h 32 % 0.0 mm
16:57 21.5 °C 4.1 °C 1011.7 hPa SSW 11.1 km/h 11.1 km/h 32 % 0.0 mm
17:02 21.4 °C 4.0 °C 1011.7 hPa WSW 13.0 km/h 13.0 km/h 32 % 0.0 mm
17:07 21.5 °C 3.7 °C 1011.7 hPa WNW 14.8 km/h 14.8 km/h 31 % 0.0 mm
17:12 20.8 °C 3.5 °C 1011.7 hPa WSW 20.4 km/h 20.4 km/h 32 % 0.0 mm
17:18 20.4 °C 3.2 °C 1010.7 hPa SW 18.5 km/h 18.5 km/h 32 % 0.0 mm
17:22 20.7 °C 3.4 °C 1010.7 hPa West 8.7 km/h 8.7 km/h 32 % 0.0 mm
17:27 20.6 °C 3.3 °C 1010.7 hPa NW 13.0 km/h 13.0 km/h 32 % 0.0 mm
17:32 20.8 °C 3.5 °C 1011.7 hPa WSW 13.0 km/h 13.0 km/h 32 % 0.0 mm
17:37 20.8 °C 3.5 °C 1011.7 hPa WSW 9.7 km/h 9.7 km/h 32 % 0.0 mm
17:47 21.3 °C 3.9 °C 1011.7 hPa WSW 7.4 km/h 7.4 km/h 32 % 0.0 mm
17:53 21.3 °C 3.9 °C 1011.7 hPa West 14.8 km/h 14.8 km/h 32 % 0.0 mm
17:58 21.0 °C 3.2 °C 1011.7 hPa West 11.9 km/h 11.9 km/h 31 % 0.0 mm
18:03 21.1 °C 3.3 °C 1011.7 hPa WSW 13.0 km/h 13.0 km/h 31 % 0.0 mm
18:18 21.3 °C 3.5 °C 1011.7 hPa SW 13.0 km/h 13.0 km/h 31 % 0.0 mm
18:23 21.2 °C 3.4 °C 1011.7 hPa SW 18.5 km/h 18.5 km/h 31 % 0.0 mm
18:28 21.1 °C 2.8 °C 1011.7 hPa West 13.0 km/h 13.0 km/h 30 % 0.0 mm
18:33 21.1 °C 2.8 °C 1010.7 hPa WSW 14.8 km/h 14.8 km/h 30 % 0.0 mm
18:38 21.1 °C 2.8 °C 1010.7 hPa WSW 13.0 km/h 13.0 km/h 30 % 0.0 mm
18:43 21.0 °C 2.7 °C 1010.7 hPa SW 16.7 km/h 16.7 km/h 30 % 0.0 mm
18:48 20.9 °C 2.7 °C 1011.7 hPa WSW 11.1 km/h 11.1 km/h 30 % 0.0 mm
18:53 20.9 °C 2.7 °C 1011.7 hPa SSW 11.1 km/h 11.1 km/h 30 % 0.0 mm
18:58 20.8 °C 2.6 °C 1011.7 hPa WNW 9.3 km/h 9.3 km/h 30 % 0.0 mm
19:03 20.6 °C 2.4 °C 1011.7 hPa West 14.8 km/h 14.8 km/h 30 % 0.0 mm
19:08 20.5 °C 2.3 °C 1011.7 hPa WSW 9.3 km/h 9.3 km/h 30 % 0.0 mm
19:13 20.2 °C 2.1 °C 1011.7 hPa West 9.3 km/h 9.3 km/h 30 % 0.0 mm
19:15 14.0 °C 0.9 °C 1015.8 hPa NNE 1.6 km/h 3.2 km/h 41 % 0.0 mm
19:18 20.1 °C 1.9 °C 1011.7 hPa West 11.1 km/h 11.1 km/h 30 % 0.0 mm
19:25 13.5 °C 0.8 °C 1015.8 hPa WSW 1.6 km/h 3.2 km/h 42 % 0.0 mm
19:33 19.5 °C 1.9 °C 1010.7 hPa WSW 14.8 km/h 14.8 km/h 31 % 0.0 mm
19:35 13.8 °C 1.1 °C 1015.8 hPa WSW 3.2 km/h 4.8 km/h 42 % 0.0 mm
19:38 19.3 °C 1.7 °C 1010.7 hPa WNW 11.1 km/h 11.1 km/h 31 % 0.0 mm
19:43 19.2 °C 1.7 °C 1010.7 hPa WSW 9.3 km/h 9.3 km/h 31 % 0.0 mm
19:45 13.4 °C 0.7 °C 1015.8 hPa WSW 1.6 km/h 3.2 km/h 42 % 0.0 mm
19:48 19.1 °C 1.6 °C 1011.7 hPa WSW 18.5 km/h 18.5 km/h 31 % 0.0 mm
19:53 19.0 °C 1.9 °C 1011.7 hPa West 16.1 km/h 16.1 km/h 32 % 0.0 mm
19:55 13.3 °C 0.9 °C 1015.8 hPa Calm   1.6 km/h 43 % 0.0 mm
19:58 18.9 °C 1.8 °C 1011.7 hPa West 11.1 km/h 11.1 km/h 32 % 0.0 mm
20:03 18.8 °C 1.7 °C 1011.7 hPa West 9.3 km/h 9.3 km/h 32 % 0.0 mm
20:05 13.4 °C 0.7 °C 1015.8 hPa West 1.6 km/h 3.2 km/h 42 % 0.0 mm
20:08 18.7 °C 1.7 °C 1011.7 hPa WSW 13.0 km/h 13.0 km/h 32 % 0.0 mm
20:13 18.5 °C 1.9 °C 1011.7 hPa WSW 5.6 km/h 5.6 km/h 33 % 0.0 mm
20:15 12.9 °C 0.6 °C 1015.8 hPa West 3.2 km/h 4.8 km/h 43 % 0.0 mm
20:18 18.4 °C 1.8 °C 1012.8 hPa WSW 7.4 km/h 7.4 km/h 33 % 0.0 mm
20:23 18.2 °C 1.7 °C 1012.8 hPa WSW 7.4 km/h 7.4 km/h 33 % 0.0 mm
20:25 12.8 °C 0.8 °C 1014.8 hPa East 1.6 km/h 3.2 km/h 44 % 0.0 mm
20:28 18.1 °C 1.6 °C 1012.8 hPa West 7.4 km/h 7.4 km/h 33 % 0.0 mm
20:33 17.9 °C 1.8 °C 1013.8 hPa WSW 7.4 km/h 7.4 km/h 34 % 0.0 mm
20:35 12.6 °C 0.7 °C 1015.8 hPa ENE 3.2 km/h 4.8 km/h 44 % 0.0 mm
20:38 17.8 °C 1.7 °C 1013.8 hPa WSW 5.6 km/h 5.6 km/h 34 % 0.0 mm
20:43 17.6 °C 1.6 °C 1013.8 hPa SW 3.7 km/h 3.7 km/h 34 % 0.0 mm
20:45 12.3 °C 0.7 °C 1015.8 hPa Calm   1.6 km/h 45 % 0.0 mm
20:53 17.3 °C 1.3 °C 1013.8 hPa WSW 3.9 km/h 3.9 km/h 34 % 0.0 mm
20:55 12.3 °C 0.7 °C 1015.8 hPa North 1.6 km/h 1.6 km/h 45 % 0.0 mm
20:58 17.2 °C 1.6 °C 1013.8 hPa SW 6.1 km/h 6.1 km/h 35 % 0.0 mm
21:08 16.9 °C 1.7 °C 1013.8 hPa SSW 7.4 km/h 7.4 km/h 36 % 0.0 mm
21:10 12.1 °C 0.8 °C 1015.8 hPa Calm   1.6 km/h 46 % 0.0 mm
21:13 16.7 °C 1.6 °C 1013.8 hPa SW 5.6 km/h 5.6 km/h 36 % 0.0 mm
21:18 16.7 °C 1.6 °C 1013.8 hPa SW 3.9 km/h 3.9 km/h 36 % 0.0 mm
21:20 12.0 °C 0.7 °C 1015.8 hPa Calm   1.6 km/h 46 % 0.0 mm
21:23 16.6 °C 1.4 °C 1013.8 hPa WSW 7.4 km/h 7.4 km/h 36 % 0.0 mm
21:28 16.6 °C 1.4 °C 1013.8 hPa West 3.7 km/h 3.7 km/h 36 % 0.0 mm
21:30 11.8 °C 0.8 °C 1015.8 hPa NNE 1.6 km/h 3.2 km/h 47 % 0.0 mm
21:33 16.5 °C 1.7 °C 1012.8 hPa SW 3.7 km/h 3.7 km/h 37 % 0.0 mm
21:38 16.4 °C 1.7 °C 1012.8 hPa WSW 3.7 km/h 3.7 km/h 37 % 0.0 mm
21:40 11.6 °C 0.7 °C 1015.8 hPa Calm   1.6 km/h 47 % 0.0 mm
21:43 16.3 °C 1.6 °C 1012.8 hPa SW 5.6 km/h 5.6 km/h 37 % 0.0 mm
21:48 16.2 °C 1.5 °C 1013.8 hPa SW 5.6 km/h 5.6 km/h 37 % 0.0 mm
21:50 11.6 °C 0.9 °C 1015.8 hPa Calm   3.2 km/h 48 % 0.0 mm
21:53 16.1 °C 1.4 °C 1013.8 hPa SW 7.4 km/h 7.4 km/h 37 % 0.0 mm
21:58 16.2 °C 1.5 °C 1013.8 hPa SW 6.1 km/h 7.9 km/h 37 % 0.0 mm
22:00 11.5 °C 1.2 °C 1015.8 hPa Calm   1.6 km/h 49 % 0.0 mm
22:03 16.1 °C 1.8 °C 1014.8 hPa SW 5.8 km/h 5.8 km/h 38 % 0.0 mm
22:08 16.1 °C 1.8 °C 1014.8 hPa SW 6.9 km/h 6.9 km/h 38 % 0.0 mm
22:10 11.4 °C 1.3 °C 1015.8 hPa North 1.6 km/h 1.6 km/h 50 % 0.0 mm
22:13 16.0 °C 1.7 °C 1014.8 hPa SW 7.4 km/h 7.4 km/h 38 % 0.0 mm
22:18 16.0 °C 1.7 °C 1014.8 hPa SW 6.4 km/h 6.4 km/h 38 % 0.0 mm
22:20 11.4 °C 1.3 °C 1015.8 hPa Calm     50 % 0.0 mm
22:23 15.7 °C 1.4 °C 1014.8 hPa WSW 7.4 km/h 7.4 km/h 38 % 0.0 mm
22:28 15.5 °C 1.6 °C 1014.8 hPa SSW 7.9 km/h 7.9 km/h 39 % 0.0 mm
22:30 11.2 °C 1.4 °C 1015.8 hPa Calm     51 % 0.0 mm
22:33 15.4 °C 1.5 °C 1014.8 hPa SW 7.4 km/h 7.4 km/h 39 % 0.0 mm
22:38 15.3 °C 1.8 °C 1014.8 hPa WSW 9.3 km/h 9.3 km/h 40 % 0.0 mm
22:40 11.1 °C 1.3 °C 1015.8 hPa ENE 3.2 km/h 3.2 km/h 51 % 0.0 mm
22:43 15.2 °C 1.7 °C 1014.8 hPa WSW 7.4 km/h 7.4 km/h 40 % 0.0 mm
22:48 15.1 °C 1.6 °C 1014.8 hPa West 7.4 km/h 7.4 km/h 40 % 0.0 mm
22:50 10.8 °C 1.3 °C 1015.8 hPa Calm   1.6 km/h 52 % 0.0 mm
22:53 15.0 °C 1.5 °C 1014.8 hPa SW 9.3 km/h 9.3 km/h 40 % 0.0 mm
22:58 15.0 °C 1.5 °C 1014.8 hPa West 5.6 km/h 5.6 km/h 40 % 0.0 mm
23:00 10.4 °C 0.9 °C 1015.8 hPa East 1.6 km/h 1.6 km/h 52 % 0.0 mm
23:03 14.9 °C 1.4 °C 1015.8 hPa West 6.1 km/h 6.1 km/h 40 % 0.0 mm
23:08 14.9 °C 1.4 °C 1015.8 hPa WSW 4.2 km/h 4.2 km/h 40 % 0.0 mm
23:10 10.1 °C 0.9 °C 1015.8 hPa Calm   1.6 km/h 53 % 0.0 mm
23:13 14.8 °C 1.3 °C 1015.8 hPa SW 1.9 km/h 1.9 km/h 40 % 0.0 mm
23:18 14.7 °C 1.2 °C 1014.8 hPa WSW 3.7 km/h 3.7 km/h 40 % 0.0 mm
23:20 9.8 °C 0.7 °C 1015.8 hPa ENE 1.6 km/h 3.2 km/h 53 % 0.0 mm
23:28 14.5 °C 1.4 °C 1014.8 hPa NNE 2.6 km/h 2.6 km/h 41 % 0.0 mm
23:30 9.6 °C 0.7 °C 1015.8 hPa Calm   1.6 km/h 54 % 0.0 mm
23:33 14.3 °C 1.2 °C 1015.8 hPa NE 3.2 km/h 3.2 km/h 41 % 0.0 mm
23:38 14.4 °C 1.3 °C 1015.8 hPa SW 2.6 km/h 2.6 km/h 41 % 0.0 mm
23:40 9.3 °C 0.4 °C 1015.8 hPa Calm     54 % 0.0 mm
23:50 9.3 °C 0.4 °C 1015.8 hPa Calm     54 % 0.0 mm
23:53 14.2 °C 1.1 °C 1015.8 hPa WNW 1.9 km/h   41 % 0.0 mm
23:58 14.2 °C 1.1 °C 1015.8 hPa WNW 1.9 km/h   41 % 0.0 mm
Meteo Sesrovires
Elogis d' Weather Underground - 3.5 mb

Guio original per  Jim McMurry - jmcmurry@mwt.net Adaptat per a la plantilla per  Wim van der Kuil - Leuven-Template.eu

Trobareu la nostra informacio del temps tambe a:

Weather Underground

AWEKAS